Time;durP1;ratioP1;P1;durP2;ratioP2;P2;SDS_P1;SDS_P2;PMS_P1;PMS_P2;Temp;Humidity;BMP_temperature;BMP_pressure;BME280_temperature;BME280_humidity;BME280_pressure;Samples;Min_cycle;Max_cycle;Signal;HPM_P1;HPM_P2
2023/07/15 00:00:42;;;;;;;7.43;3.55;;;;;;;;;;4887357;29;20024;-64
2023/07/15 00:03:09;;;;;;;7.50;3.30;;;;;;;;;;4908203;29;20051;-64
2023/07/15 00:05:35;;;;;;;7.30;3.20;;;;;;;;;;4907959;29;20102;-64
2023/07/15 00:08:06;;;;;;;7.82;3.70;;;;;;;;;;4907077;29;20066;-64
2023/07/15 00:10:33;;;;;;;8.23;3.22;;;;;;;;;;4906766;29;20062;-64
2023/07/15 00:12:59;;;;;;;7.50;3.08;;;;;;;;;;4890091;29;20039;-64
2023/07/15 00:15:25;;;;;;;7.57;3.50;;;;;;;;;;4908513;29;20028;-64
2023/07/15 00:17:52;;;;;;;6.05;3.28;;;;;;;;;;4907717;29;20036;-64
2023/07/15 00:20:19;;;;;;;8.93;3.83;;;;;;;;;;4907606;29;20050;-64
2023/07/15 00:22:45;;;;;;;8.60;3.75;;;;;;;;;;4907472;29;20491;-64
2023/07/15 00:25:20;;;;;;;8.20;3.33;;;;;;;;;;4907767;29;20090;-63
2023/07/15 00:27:47;;;;;;;8.30;3.50;;;;;;;;;;4907525;29;20046;-64
2023/07/15 00:30:14;;;;;;;7.07;3.60;;;;;;;;;;4907899;29;20407;-64
2023/07/15 00:32:41;;;;;;;5.72;3.08;;;;;;;;;;4907005;29;20046;-64
2023/07/15 00:35:29;;;;;;;6.05;3.10;;;;;;;;;;4907623;29;20555;-64
2023/07/15 00:37:58;;;;;;;6.38;2.80;;;;;;;;;;4907190;29;20140;-64
2023/07/15 00:40:25;;;;;;;7.68;2.92;;;;;;;;;;4907494;29;20041;-64
2023/07/15 00:43:10;;;;;;;8.85;3.33;;;;;;;;;;4907638;29;20031;-64
2023/07/15 00:45:36;;;;;;;6.57;2.88;;;;;;;;;;4907770;29;20040;-64
2023/07/15 00:48:11;;;;;;;6.78;3.25;;;;;;;;;;4907360;29;20042;-64
2023/07/15 00:50:42;;;;;;;8.13;3.13;;;;;;;;;;4907783;29;20028;-64
2023/07/15 00:53:09;;;;;;;8.07;2.97;;;;;;;;;;4907516;29;20031;-64
2023/07/15 00:55:35;;;;;;;5.10;3.20;;;;;;;;;;4907171;29;20752;-64
2023/07/15 00:58:03;;;;;;;8.23;3.10;;;;;;;;;;4905170;29;20664;-64
2023/07/15 01:00:29;;;;;;;6.00;3.08;;;;;;;;;;4907017;29;20428;-64
2023/07/15 01:02:55;;;;;;;7.43;3.33;;;;;;;;;;4907566;29;20167;-64
2023/07/15 01:05:21;;;;;;;7.95;2.97;;;;;;;;;;4906891;29;21050;-64
2023/07/15 01:07:47;;;;;;;6.82;2.80;;;;;;;;;;4906874;29;20067;-64
2023/07/15 01:10:13;;;;;;;9.00;3.00;;;;;;;;;;4906520;29;20050;-64
2023/07/15 01:12:39;;;;;;;5.80;2.83;;;;;;;;;;4906182;29;20032;-64
2023/07/15 01:15:06;;;;;;;7.20;3.00;;;;;;;;;;4906269;29;20090;-64
2023/07/15 01:17:32;;;;;;;8.88;3.22;;;;;;;;;;4905852;29;20034;-64
2023/07/15 01:19:59;;;;;;;7.93;2.97;;;;;;;;;;4906239;29;20143;-64
2023/07/15 01:22:26;;;;;;;5.40;2.65;;;;;;;;;;4905387;29;20503;-64
2023/07/15 01:24:52;;;;;;;6.68;3.00;;;;;;;;;;4908367;29;20032;-64
2023/07/15 01:27:18;;;;;;;8.15;3.35;;;;;;;;;;4910576;29;20042;-64
2023/07/15 01:29:44;;;;;;;5.75;2.83;;;;;;;;;;4910467;29;20090;-64
2023/07/15 01:32:11;;;;;;;6.88;3.40;;;;;;;;;;4910228;29;20056;-64
2023/07/15 01:34:37;;;;;;;6.72;2.85;;;;;;;;;;4909777;29;20055;-64
2023/07/15 01:37:03;;;;;;;6.93;2.88;;;;;;;;;;4909149;29;20031;-64
2023/07/15 01:39:29;;;;;;;7.38;3.03;;;;;;;;;;4898552;29;20142;-64
2023/07/15 01:41:55;;;;;;;7.95;2.90;;;;;;;;;;4909718;29;20055;-64
2023/07/15 01:44:23;;;;;;;7.28;2.92;;;;;;;;;;4909490;29;20036;-64
2023/07/15 01:46:49;;;;;;;7.07;2.50;;;;;;;;;;4910334;29;20664;-64
2023/07/15 01:49:15;;;;;;;7.65;2.75;;;;;;;;;;4909933;29;20046;-64
2023/07/15 01:51:41;;;;;;;4.80;2.60;;;;;;;;;;4910128;29;20031;-64
2023/07/15 01:54:07;;;;;;;6.70;2.80;;;;;;;;;;4909179;29;21845;-64
2023/07/15 01:56:33;;;;;;;5.32;2.30;;;;;;;;;;4910644;29;20054;-64
2023/07/15 01:58:59;;;;;;;4.35;2.33;;;;;;;;;;4910548;29;20633;-64
2023/07/15 02:01:26;;;;;;;6.85;2.60;;;;;;;;;;4909928;29;20043;-64
2023/07/15 02:03:52;;;;;;;7.85;2.80;;;;;;;;;;4909185;29;20032;-64
2023/07/15 02:06:18;;;;;;;5.00;2.40;;;;;;;;;;4910418;29;20169;-64
2023/07/15 02:08:45;;;;;;;6.70;2.55;;;;;;;;;;4910750;29;20067;-64
2023/07/15 02:11:11;;;;;;;7.78;2.78;;;;;;;;;;4909570;29;20036;-64
2023/07/15 02:13:37;;;;;;;5.18;2.60;;;;;;;;;;4910341;29;20036;-64
2023/07/15 02:16:03;;;;;;;5.15;2.30;;;;;;;;;;4910430;29;20051;-64
2023/07/15 02:18:30;;;;;;;5.78;2.40;;;;;;;;;;4910023;29;20032;-64
2023/07/15 02:20:56;;;;;;;6.30;2.38;;;;;;;;;;4910214;29;20023;-64
2023/07/15 02:23:22;;;;;;;6.95;2.78;;;;;;;;;;4909242;29;20039;-64
2023/07/15 02:25:48;;;;;;;7.22;2.17;;;;;;;;;;4899528;29;20653;-64
2023/07/15 02:28:14;;;;;;;7.32;2.20;;;;;;;;;;4910259;29;20055;-64
2023/07/15 02:30:40;;;;;;;5.40;2.10;;;;;;;;;;4910288;29;20043;-64
2023/07/15 02:33:06;;;;;;;4.72;2.20;;;;;;;;;;4909913;29;20039;-64
2023/07/15 02:35:33;;;;;;;7.78;2.45;;;;;;;;;;4898708;29;21892;-64
2023/07/15 02:37:59;;;;;;;7.38;2.20;;;;;;;;;;4910141;29;20035;-64
2023/07/15 02:40:29;;;;;;;4.47;2.10;;;;;;;;;;4909863;29;20040;-64
2023/07/15 02:42:55;;;;;;;8.40;2.50;;;;;;;;;;4909935;29;20032;-64
2023/07/15 02:45:21;;;;;;;9.02;2.33;;;;;;;;;;4909463;29;20047;-64
2023/07/15 02:47:47;;;;;;;4.38;1.83;;;;;;;;;;4910583;29;20043;-64
2023/07/15 02:50:13;;;;;;;6.28;2.42;;;;;;;;;;4909629;29;20559;-64
2023/07/15 02:52:42;;;;;;;6.65;2.35;;;;;;;;;;4908868;29;20040;-64
2023/07/15 02:55:08;;;;;;;6.63;2.38;;;;;;;;;;4909781;29;20032;-64
2023/07/15 02:57:34;;;;;;;6.63;2.20;;;;;;;;;;4909467;29;20400;-64
2023/07/15 03:00:01;;;;;;;5.07;2.25;;;;;;;;;;4909722;29;20040;-64
2023/07/15 03:02:28;;;;;;;5.82;2.60;;;;;;;;;;4909122;29;20106;-64
2023/07/15 03:04:54;;;;;;;4.57;1.85;;;;;;;;;;4909263;29;20036;-64
2023/07/15 03:07:21;;;;;;;4.20;1.90;;;;;;;;;;4892349;29;20032;-64
2023/07/15 03:09:47;;;;;;;6.28;2.40;;;;;;;;;;4908900;29;20036;-64
2023/07/15 03:12:13;;;;;;;4.25;1.80;;;;;;;;;;4908788;29;20835;-64
2023/07/15 03:14:41;;;;;;;5.72;2.00;;;;;;;;;;4909146;29;20986;-64
2023/07/15 03:17:08;;;;;;;7.63;2.33;;;;;;;;;;4909484;29;20035;-64
2023/07/15 03:19:34;;;;;;;5.47;1.95;;;;;;;;;;4909490;29;20848;-64
2023/07/15 03:22:00;;;;;;;4.28;2.00;;;;;;;;;;4909025;29;20134;-64
2023/07/15 03:24:26;;;;;;;6.03;1.90;;;;;;;;;;4908820;29;20114;-64
2023/07/15 03:26:53;;;;;;;4.80;2.10;;;;;;;;;;4908887;29;20107;-64
2023/07/15 03:29:20;;;;;;;4.22;1.88;;;;;;;;;;4909552;29;20046;-64
2023/07/15 03:31:46;;;;;;;6.03;2.38;;;;;;;;;;4908828;29;20115;-64
2023/07/15 03:34:12;;;;;;;6.07;2.45;;;;;;;;;;4909124;29;20096;-64
2023/07/15 03:36:38;;;;;;;6.25;2.10;;;;;;;;;;4908671;29;20036;-64
2023/07/15 03:39:05;;;;;;;7.57;2.50;;;;;;;;;;4909002;29;20055;-64
2023/07/15 03:41:31;;;;;;;4.97;2.10;;;;;;;;;;4908668;29;20150;-64
2023/07/15 03:43:57;;;;;;;8.80;2.00;;;;;;;;;;4908784;29;20075;-64
2023/07/15 03:46:23;;;;;;;5.40;1.98;;;;;;;;;;4908733;29;20023;-64
2023/07/15 03:48:49;;;;;;;5.13;2.00;;;;;;;;;;4908736;29;21726;-64
2023/07/15 03:51:15;;;;;;;4.90;2.00;;;;;;;;;;4908354;29;20044;-64
2023/07/15 03:53:41;;;;;;;7.68;1.90;;;;;;;;;;4908590;29;20040;-64
2023/07/15 03:56:07;;;;;;;3.63;1.67;;;;;;;;;;4908620;29;20040;-64
2023/07/15 03:58:33;;;;;;;5.05;2.00;;;;;;;;;;4908728;29;20032;-64
2023/07/15 04:01:00;;;;;;;4.80;1.88;;;;;;;;;;4907729;29;20040;-64
2023/07/15 04:03:26;;;;;;;6.00;2.28;;;;;;;;;;4892020;29;20028;-63
2023/07/15 04:05:52;;;;;;;8.18;2.00;;;;;;;;;;4907764;29;20462;-64
2023/07/15 04:08:18;;;;;;;9.98;2.35;;;;;;;;;;4908323;29;20404;-64
2023/07/15 04:10:47;;;;;;;5.43;1.98;;;;;;;;;;4908585;29;20035;-64
2023/07/15 04:13:14;;;;;;;7.13;2.13;;;;;;;;;;4907878;29;20040;-64
2023/07/15 04:15:40;;;;;;;4.85;2.17;;;;;;;;;;4908088;29;20047;-64
2023/07/15 04:18:06;;;;;;;6.70;2.00;;;;;;;;;;4907851;29;20111;-64
2023/07/15 04:20:32;;;;;;;5.60;2.42;;;;;;;;;;4907536;29;20072;-64
2023/07/15 04:22:58;;;;;;;6.20;1.83;;;;;;;;;;4907831;29;20512;-64
2023/07/15 04:25:25;;;;;;;6.57;2.10;;;;;;;;;;4907745;29;20168;-64
2023/07/15 04:27:51;;;;;;;5.50;2.00;;;;;;;;;;4907531;29;20045;-64
2023/07/15 04:30:17;;;;;;;5.13;2.00;;;;;;;;;;4907366;29;20547;-64
2023/07/15 04:32:43;;;;;;;4.05;2.13;;;;;;;;;;4907491;29;20051;-64
2023/07/15 04:35:09;;;;;;;6.78;2.15;;;;;;;;;;4907802;29;20063;-64
2023/07/15 04:37:37;;;;;;;5.70;2.25;;;;;;;;;;4907509;29;20028;-64
2023/07/15 04:40:04;;;;;;;6.63;2.33;;;;;;;;;;4907706;29;20472;-64
2023/07/15 04:42:30;;;;;;;5.93;2.28;;;;;;;;;;4908232;29;20040;-64
2023/07/15 04:44:56;;;;;;;6.13;2.17;;;;;;;;;;4907703;29;20036;-64
2023/07/15 04:47:22;;;;;;;6.00;2.15;;;;;;;;;;4907209;29;20047;-64
2023/07/15 04:49:48;;;;;;;4.50;1.83;;;;;;;;;;4907474;29;20036;-64
2023/07/15 04:52:14;;;;;;;6.55;2.15;;;;;;;;;;4908030;29;20038;-64
2023/07/15 04:54:40;;;;;;;5.30;1.92;;;;;;;;;;4907658;29;20408;-64
2023/07/15 04:57:07;;;;;;;5.63;2.60;;;;;;;;;;4906860;29;21838;-64
2023/07/15 04:59:34;;;;;;;8.88;2.38;;;;;;;;;;4907847;29;20020;-64
2023/07/15 05:02:00;;;;;;;5.68;2.10;;;;;;;;;;4907377;29;20115;-64
2023/07/15 05:04:26;;;;;;;6.97;2.60;;;;;;;;;;4907788;29;20194;-64
2023/07/15 05:06:53;;;;;;;5.63;2.55;;;;;;;;;;4907327;29;20031;-64
2023/07/15 05:09:19;;;;;;;10.95;3.17;;;;;;;;;;4907446;29;20059;-64
2023/07/15 05:11:45;;;;;;;5.07;2.00;;;;;;;;;;4907591;29;20060;-64
2023/07/15 05:14:11;;;;;;;4.65;2.03;;;;;;;;;;4908079;29;20043;-64
2023/07/15 05:16:37;;;;;;;8.13;2.47;;;;;;;;;;4906553;29;20035;-64
2023/07/15 05:19:03;;;;;;;6.68;2.35;;;;;;;;;;4907447;29;20036;-64
2023/07/15 05:21:29;;;;;;;5.00;2.30;;;;;;;;;;4907669;29;20426;-64
2023/07/15 05:23:56;;;;;;;7.55;2.22;;;;;;;;;;4907071;29;20728;-64
2023/07/15 05:26:22;;;;;;;4.80;2.10;;;;;;;;;;4889201;29;20036;-64
2023/07/15 05:28:48;;;;;;;5.15;1.98;;;;;;;;;;4907131;29;20038;-64
2023/07/15 05:31:14;;;;;;;6.40;2.17;;;;;;;;;;4907221;29;20028;-64
2023/07/15 05:33:44;;;;;;;4.55;1.95;;;;;;;;;;4905284;29;20068;-64
2023/07/15 05:36:10;;;;;;;5.38;2.17;;;;;;;;;;4906135;29;20035;-64
2023/07/15 05:38:42;;;;;;;7.38;2.70;;;;;;;;;;4906369;29;20036;-64
2023/07/15 05:41:08;;;;;;;5.60;2.25;;;;;;;;;;4907351;29;20905;-64
2023/07/15 05:43:34;;;;;;;5.55;2.22;;;;;;;;;;4906568;29;20503;-64
2023/07/15 05:46:00;;;;;;;5.45;2.05;;;;;;;;;;4906185;29;20595;-64
2023/07/15 05:48:26;;;;;;;5.65;2.03;;;;;;;;;;4906368;29;21950;-64
2023/07/15 05:50:52;;;;;;;7.32;2.25;;;;;;;;;;4907225;29;20082;-64
2023/07/15 05:53:18;;;;;;;5.43;1.98;;;;;;;;;;4907303;29;20042;-64
2023/07/15 05:55:44;;;;;;;7.55;2.28;;;;;;;;;;4906058;29;20027;-64
2023/07/15 05:58:10;;;;;;;4.75;2.15;;;;;;;;;;4907080;29;20558;-64
2023/07/15 06:00:40;;;;;;;7.85;2.10;;;;;;;;;;4906637;29;20027;-64
2023/07/15 06:03:06;;;;;;;6.05;2.30;;;;;;;;;;4906055;29;20624;-64
2023/07/15 06:05:32;;;;;;;6.65;2.58;;;;;;;;;;4906402;29;20719;-64
2023/07/15 06:07:58;;;;;;;5.82;2.05;;;;;;;;;;4906358;29;20060;-64
2023/07/15 06:10:24;;;;;;;4.32;1.90;;;;;;;;;;4907975;29;20046;-64
2023/07/15 06:12:50;;;;;;;5.43;1.90;;;;;;;;;;4909949;29;20516;-64
2023/07/15 06:15:16;;;;;;;5.50;2.05;;;;;;;;;;4892833;29;20068;-64
2023/07/15 06:17:43;;;;;;;4.95;1.80;;;;;;;;;;4909342;29;20620;-64
2023/07/15 06:20:10;;;;;;;4.68;2.00;;;;;;;;;;4910161;29;20100;-64
2023/07/15 06:22:36;;;;;;;3.88;1.70;;;;;;;;;;4909289;29;20479;-64
2023/07/15 06:25:02;;;;;;;7.25;2.13;;;;;;;;;;4909304;29;20584;-64
2023/07/15 06:27:28;;;;;;;5.57;1.98;;;;;;;;;;4910143;29;20083;-64
2023/07/15 06:29:54;;;;;;;5.40;2.13;;;;;;;;;;4910353;29;20744;-64
2023/07/15 06:32:20;;;;;;;5.05;1.75;;;;;;;;;;4909675;29;20515;-64
2023/07/15 06:34:46;;;;;;;5.47;2.05;;;;;;;;;;4910260;29;20110;-64
2023/07/15 06:37:12;;;;;;;3.83;1.48;;;;;;;;;;4909693;29;20039;-64
2023/07/15 06:39:39;;;;;;;7.88;2.20;;;;;;;;;;4909106;29;20183;-64
2023/07/15 06:42:05;;;;;;;6.32;2.10;;;;;;;;;;4910177;29;20064;-64
2023/07/15 06:44:31;;;;;;;4.93;1.98;;;;;;;;;;4909735;29;20038;-64
2023/07/15 06:46:57;;;;;;;5.43;1.90;;;;;;;;;;4908636;29;20040;-64
2023/07/15 06:49:23;;;;;;;5.15;1.90;;;;;;;;;;4909126;29;20039;-64
2023/07/15 06:51:49;;;;;;;5.38;2.15;;;;;;;;;;4909338;29;20101;-64
2023/07/15 06:54:15;;;;;;;3.17;1.65;;;;;;;;;;4909542;29;20079;-64
2023/07/15 06:56:41;;;;;;;6.07;1.90;;;;;;;;;;4907454;29;20039;-64
2023/07/15 06:59:07;;;;;;;5.03;1.83;;;;;;;;;;4907562;29;20039;-64
2023/07/15 07:01:33;;;;;;;7.45;2.20;;;;;;;;;;4908228;29;20083;-64
2023/07/15 07:03:59;;;;;;;7.25;2.30;;;;;;;;;;4908401;29;20044;-64
2023/07/15 07:06:27;;;;;;;5.45;1.60;;;;;;;;;;4908724;29;20051;-64
2023/07/15 07:08:54;;;;;;;4.43;2.08;;;;;;;;;;4909277;29;20039;-64
2023/07/15 07:11:20;;;;;;;5.15;2.20;;;;;;;;;;4908697;29;20555;-64
2023/07/15 07:13:46;;;;;;;6.15;1.98;;;;;;;;;;4892284;29;20419;-64
2023/07/15 07:16:12;;;;;;;9.38;2.03;;;;;;;;;;4908356;29;20040;-64
2023/07/15 07:18:39;;;;;;;5.10;2.03;;;;;;;;;;4907788;29;20172;-64
2023/07/15 07:21:05;;;;;;;5.18;2.20;;;;;;;;;;4906364;29;20031;-64
2023/07/15 07:23:31;;;;;;;5.22;1.92;;;;;;;;;;4906289;29;20055;-64
2023/07/15 07:25:57;;;;;;;5.28;2.10;;;;;;;;;;4908620;29;20126;-64
2023/07/15 07:28:24;;;;;;;4.90;1.88;;;;;;;;;;4875016;29;20032;-64
2023/07/15 07:30:50;;;;;;;7.18;2.28;;;;;;;;;;4907112;29;20039;-64
2023/07/15 07:33:18;;;;;;;6.68;2.10;;;;;;;;;;4908066;29;20032;-64
2023/07/15 07:35:47;;;;;;;5.88;2.10;;;;;;;;;;4906917;29;20039;-64
2023/07/15 07:38:13;;;;;;;4.93;1.63;;;;;;;;;;4908496;29;20038;-64
2023/07/15 07:40:39;;;;;;;4.25;1.80;;;;;;;;;;4907854;29;20024;-64
2023/07/15 07:43:05;;;;;;;5.18;1.90;;;;;;;;;;4907990;29;20056;-64
2023/07/15 07:45:32;;;;;;;5.10;2.13;;;;;;;;;;4907318;29;20064;-64
2023/07/15 07:47:58;;;;;;;5.72;1.95;;;;;;;;;;4907579;29;20023;-64
2023/07/15 07:50:24;;;;;;;4.57;1.77;;;;;;;;;;4907963;29;20106;-64
2023/07/15 07:52:50;;;;;;;4.75;1.83;;;;;;;;;;4907097;29;20045;-64
2023/07/15 07:55:16;;;;;;;5.60;1.55;;;;;;;;;;4906234;29;20039;-64
2023/07/15 07:57:42;;;;;;;5.15;2.20;;;;;;;;;;4907070;29;20119;-64
2023/07/15 08:00:09;;;;;;;4.07;1.60;;;;;;;;;;4907312;29;20131;-64
2023/07/15 08:02:35;;;;;;;6.28;1.98;;;;;;;;;;4905343;29;20064;-64
2023/07/15 08:05:01;;;;;;;6.70;1.70;;;;;;;;;;4905668;29;20114;-64
2023/07/15 08:07:27;;;;;;;5.50;1.90;;;;;;;;;;4906535;29;20046;-63
2023/07/15 08:09:53;;;;;;;5.70;1.95;;;;;;;;;;4907137;29;20043;-64
2023/07/15 08:12:19;;;;;;;4.07;1.73;;;;;;;;;;4907394;29;20043;-66
2023/07/15 08:14:45;;;;;;;3.38;1.50;;;;;;;;;;4907120;29;20050;-64
2023/07/15 08:17:11;;;;;;;4.13;1.80;;;;;;;;;;4907953;29;20040;-64
2023/07/15 08:19:37;;;;;;;4.15;1.40;;;;;;;;;;4906826;29;20027;-64
2023/07/15 08:22:03;;;;;;;6.43;1.45;;;;;;;;;;4907033;29;20059;-64
2023/07/15 08:24:29;;;;;;;4.47;1.13;;;;;;;;;;4906850;29;20043;-64
2023/07/15 08:26:55;;;;;;;3.50;1.10;;;;;;;;;;4907269;29;20847;-64
2023/07/15 08:29:21;;;;;;;6.63;2.00;;;;;;;;;;4905621;29;20097;-64
2023/07/15 08:31:47;;;;;;;3.63;1.50;;;;;;;;;;4907119;29;20035;-64
2023/07/15 08:34:13;;;;;;;4.93;1.52;;;;;;;;;;4906679;29;20040;-64
2023/07/15 08:36:39;;;;;;;4.70;1.38;;;;;;;;;;4906866;29;20079;-64
2023/07/15 08:39:05;;;;;;;4.32;1.70;;;;;;;;;;4906959;29;20063;-64
2023/07/15 08:41:32;;;;;;;4.20;1.40;;;;;;;;;;4907716;29;20044;-64
2023/07/15 08:43:58;;;;;;;5.93;1.30;;;;;;;;;;4889297;29;21968;-64
2023/07/15 08:46:28;;;;;;;6.22;1.63;;;;;;;;;;4906595;29;20032;-63
2023/07/15 08:48:55;;;;;;;4.25;1.30;;;;;;;;;;4906269;29;20499;-64
2023/07/15 08:51:22;;;;;;;4.55;1.65;;;;;;;;;;4906428;29;20043;-64
2023/07/15 08:53:48;;;;;;;4.97;1.42;;;;;;;;;;4906031;29;20543;-63
2023/07/15 08:56:15;;;;;;;6.75;1.42;;;;;;;;;;4905116;29;20115;-64
2023/07/15 08:58:42;;;;;;;2.65;1.23;;;;;;;;;;4903809;29;20036;-64
2023/07/15 09:01:08;;;;;;;5.45;1.52;;;;;;;;;;4903901;29;20043;-64
2023/07/15 09:03:34;;;;;;;3.40;1.42;;;;;;;;;;4905091;29;20119;-64
2023/07/15 09:06:04;;;;;;;4.07;1.48;;;;;;;;;;4906497;29;20036;-64
2023/07/15 09:08:30;;;;;;;2.88;1.40;;;;;;;;;;4905365;29;20407;-64
2023/07/15 09:10:56;;;;;;;3.13;1.33;;;;;;;;;;4906089;29;20031;-64
2023/07/15 09:13:27;;;;;;;4.15;1.80;;;;;;;;;;4905658;29;20048;-64
2023/07/15 09:15:54;;;;;;;4.20;1.35;;;;;;;;;;4904696;29;21370;-64
2023/07/15 09:18:20;;;;;;;3.95;1.50;;;;;;;;;;4905740;29;20032;-64
2023/07/15 09:20:47;;;;;;;3.03;1.33;;;;;;;;;;4904563;29;20040;-64
2023/07/15 09:23:13;;;;;;;3.63;1.50;;;;;;;;;;4905494;29;20032;-64
2023/07/15 09:25:46;;;;;;;2.92;1.30;;;;;;;;;;4905638;29;20044;-64
2023/07/15 09:28:14;;;;;;;4.07;1.58;;;;;;;;;;4906531;29;20036;-64
2023/07/15 09:30:40;;;;;;;2.95;1.30;;;;;;;;;;4904477;29;20067;-64
2023/07/15 09:33:07;;;;;;;3.45;1.40;;;;;;;;;;4905519;29;20070;-64
2023/07/15 09:35:41;;;;;;;6.45;1.52;;;;;;;;;;4906159;29;20162;-64
2023/07/15 09:38:13;;;;;;;2.58;1.17;;;;;;;;;;4904684;29;20032;-64
2023/07/15 09:40:42;;;;;;;4.45;1.27;;;;;;;;;;4900697;29;20034;-64
2023/07/15 09:43:08;;;;;;;3.78;1.42;;;;;;;;;;4906234;29;20036;-64
2023/07/15 09:45:35;;;;;;;4.25;1.30;;;;;;;;;;4907869;29;20040;-64
2023/07/15 09:48:07;;;;;;;3.85;1.50;;;;;;;;;;4908246;29;20047;-64
2023/07/15 09:50:33;;;;;;;4.32;1.40;;;;;;;;;;4909666;29;20036;-64
2023/07/15 09:52:59;;;;;;;2.22;1.23;;;;;;;;;;4909407;29;20207;-64
2023/07/15 09:55:26;;;;;;;4.72;1.05;;;;;;;;;;4906847;29;20032;-64
2023/07/15 09:57:57;;;;;;;2.78;1.00;;;;;;;;;;4909382;29;20032;-64
2023/07/15 10:00:24;;;;;;;3.85;1.30;;;;;;;;;;4908060;29;20039;-64
2023/07/15 10:02:55;;;;;;;2.47;1.02;;;;;;;;;;4892037;29;20044;-64
2023/07/15 10:05:22;;;;;;;4.03;1.30;;;;;;;;;;4907457;29;20035;-64
2023/07/15 10:07:48;;;;;;;4.50;1.20;;;;;;;;;;4907831;29;20035;-64
2023/07/15 10:10:14;;;;;;;3.10;0.93;;;;;;;;;;4908054;29;20040;-64
2023/07/15 10:12:41;;;;;;;2.53;1.10;;;;;;;;;;4906880;29;20998;-64
2023/07/15 10:15:07;;;;;;;2.95;1.08;;;;;;;;;;4908031;29;20391;-64
2023/07/15 10:17:34;;;;;;;2.53;1.30;;;;;;;;;;4907841;29;20122;-64
2023/07/15 10:20:10;;;;;;;3.13;1.30;;;;;;;;;;4908363;29;20143;-64
2023/07/15 10:22:36;;;;;;;2.97;1.20;;;;;;;;;;4908772;29;20559;-64
2023/07/15 10:25:04;;;;;;;2.40;1.20;;;;;;;;;;4908570;29;20043;-64
2023/07/15 10:27:31;;;;;;;4.00;1.42;;;;;;;;;;4909004;29;20034;-64
2023/07/15 10:30:15;;;;;;;1.88;1.05;;;;;;;;;;4908749;29;20043;-64
2023/07/15 10:33:08;;;;;;;2.33;1.27;;;;;;;;;;4908722;29;20036;-64
2023/07/15 10:35:40;;;;;;;3.35;1.13;;;;;;;;;;4909112;29;20036;-64
2023/07/15 10:38:25;;;;;;;4.72;1.42;;;;;;;;;;4907568;29;20032;-64
2023/07/15 10:40:52;;;;;;;6.05;1.73;;;;;;;;;;4908848;29;20051;-64
2023/07/15 10:43:22;;;;;;;4.80;1.60;;;;;;;;;;4908093;29;20451;-64
2023/07/15 10:45:52;;;;;;;3.35;1.35;;;;;;;;;;4909067;29;20031;-64
2023/07/15 10:48:18;;;;;;;4.35;1.60;;;;;;;;;;4909585;29;20123;-64
2023/07/15 10:50:54;;;;;;;4.68;1.70;;;;;;;;;;4908169;29;20042;-64
2023/07/15 10:53:21;;;;;;;2.60;1.50;;;;;;;;;;4906904;29;20067;-64
2023/07/15 10:55:54;;;;;;;4.80;1.60;;;;;;;;;;4907556;29;20733;-64
2023/07/15 10:58:21;;;;;;;4.78;1.80;;;;;;;;;;4907375;29;20046;-64
2023/07/15 11:00:47;;;;;;;4.30;1.38;;;;;;;;;;4908332;29;20100;-64
2023/07/15 11:03:13;;;;;;;5.38;1.90;;;;;;;;;;4907897;29;20483;-64
2023/07/15 11:05:39;;;;;;;4.18;1.60;;;;;;;;;;4908220;29;20047;-64
2023/07/15 11:08:06;;;;;;;6.63;1.80;;;;;;;;;;4908182;29;21059;-64
2023/07/15 11:10:33;;;;;;;2.92;1.60;;;;;;;;;;4905793;29;20040;-64
2023/07/15 11:13:10;;;;;;;4.57;1.80;;;;;;;;;;4908345;29;20676;-64
2023/07/15 11:15:36;;;;;;;4.88;1.63;;;;;;;;;;4907556;29;20028;-63
2023/07/15 11:18:02;;;;;;;5.93;1.73;;;;;;;;;;4906193;29;20047;-63
2023/07/15 11:20:28;;;;;;;5.10;1.80;;;;;;;;;;4906206;29;20048;-63
2023/07/15 11:22:54;;;;;;;4.88;1.75;;;;;;;;;;4904855;29;20054;-63
2023/07/15 11:25:21;;;;;;;3.97;1.70;;;;;;;;;;4905356;29;20036;-63
2023/07/15 11:27:47;;;;;;;4.57;2.08;;;;;;;;;;4907377;29;20048;-63
2023/07/15 11:30:13;;;;;;;4.18;1.77;;;;;;;;;;4907389;29;21053;-63
2023/07/15 11:32:39;;;;;;;4.72;1.90;;;;;;;;;;4908399;29;20047;-63
2023/07/15 11:35:11;;;;;;;5.25;1.73;;;;;;;;;;4907531;29;20059;-63
2023/07/15 11:37:42;;;;;;;6.10;1.83;;;;;;;;;;4908600;29;20062;-63
2023/07/15 11:40:14;;;;;;;4.93;1.85;;;;;;;;;;4906624;29;20028;-63
2023/07/15 11:42:40;;;;;;;4.28;1.60;;;;;;;;;;4908624;29;20032;-63
2023/07/15 11:45:07;;;;;;;6.47;1.77;;;;;;;;;;4906796;29;20050;-63
2023/07/15 11:47:35;;;;;;;7.40;1.98;;;;;;;;;;4908010;29;20036;-64
2023/07/15 11:50:01;;;;;;;3.35;1.30;;;;;;;;;;4907791;29;20140;-64
2023/07/15 11:52:27;;;;;;;4.00;1.63;;;;;;;;;;4907224;29;20031;-64
2023/07/15 11:54:56;;;;;;;4.53;2.22;;;;;;;;;;4907120;29;20023;-64
2023/07/15 11:57:29;;;;;;;4.25;1.63;;;;;;;;;;4907028;29;20020;-64
2023/07/15 11:59:55;;;;;;;3.25;1.52;;;;;;;;;;4908240;29;20103;-64
2023/07/15 12:02:21;;;;;;;5.60;1.90;;;;;;;;;;4906048;29;20079;-64
2023/07/15 12:04:48;;;;;;;3.28;1.42;;;;;;;;;;4906779;29;20043;-64
2023/07/15 12:07:14;;;;;;;4.50;1.65;;;;;;;;;;4907571;29;20091;-64
2023/07/15 12:09:41;;;;;;;3.78;1.85;;;;;;;;;;4907239;29;20103;-64
2023/07/15 12:12:07;;;;;;;5.50;2.00;;;;;;;;;;4907355;29;20462;-64
2023/07/15 12:14:34;;;;;;;7.25;2.15;;;;;;;;;;4907239;29;21842;-64
2023/07/15 12:17:02;;;;;;;7.07;2.83;;;;;;;;;;4907183;29;20076;-64
2023/07/15 12:19:31;;;;;;;5.45;1.65;;;;;;;;;;4907610;29;20064;-64
2023/07/15 12:21:57;;;;;;;6.57;1.70;;;;;;;;;;4907941;29;20760;-64
2023/07/15 12:24:23;;;;;;;3.75;1.50;;;;;;;;;;4907313;29;20032;-64
2023/07/15 12:26:49;;;;;;;4.07;1.30;;;;;;;;;;4907369;29;20040;-64
2023/07/15 12:29:15;;;;;;;4.85;1.92;;;;;;;;;;4908010;29;20143;-64
2023/07/15 12:31:41;;;;;;;4.15;1.67;;;;;;;;;;4906726;29;20499;-64
2023/07/15 12:34:07;;;;;;;4.65;1.67;;;;;;;;;;4906881;29;20713;-64
2023/07/15 12:36:33;;;;;;;3.63;1.30;;;;;;;;;;4907378;29;20376;-63
2023/07/15 12:38:59;;;;;;;4.13;1.40;;;;;;;;;;4907099;29;20027;-64
2023/07/15 12:41:25;;;;;;;10.30;1.70;;;;;;;;;;4907015;29;20691;-63
2023/07/15 12:43:51;;;;;;;4.18;1.33;;;;;;;;;;4906040;29;20036;-63
2023/07/15 12:46:18;;;;;;;3.78;1.30;;;;;;;;;;4906903;29;20035;-64
2023/07/15 12:48:44;;;;;;;3.85;1.30;;;;;;;;;;4889829;29;20042;-64
2023/07/15 12:51:10;;;;;;;3.85;1.50;;;;;;;;;;4906482;29;20436;-64
2023/07/15 12:53:37;;;;;;;3.83;1.33;;;;;;;;;;4906834;29;20048;-64
2023/07/15 12:56:03;;;;;;;4.18;1.35;;;;;;;;;;4905028;29;20031;-64
2023/07/15 12:58:29;;;;;;;4.60;1.65;;;;;;;;;;4906208;29;22001;-64
2023/07/15 13:00:57;;;;;;;2.60;1.33;;;;;;;;;;4905989;29;20071;-64
2023/07/15 13:03:23;;;;;;;3.85;1.58;;;;;;;;;;4905369;29;20130;-64
2023/07/15 13:05:49;;;;;;;5.18;1.60;;;;;;;;;;4906180;29;20035;-63
2023/07/15 13:08:15;;;;;;;5.47;1.92;;;;;;;;;;4906514;29;20520;-63
2023/07/15 13:10:43;;;;;;;4.13;1.85;;;;;;;;;;4906405;29;20032;-63
2023/07/15 13:13:09;;;;;;;4.70;1.42;;;;;;;;;;4906830;29;20032;-63
2023/07/15 13:15:35;;;;;;;3.67;1.67;;;;;;;;;;4907541;29;20403;-63
2023/07/15 13:18:02;;;;;;;5.75;1.80;;;;;;;;;;4905077;29;21679;-63
2023/07/15 13:20:28;;;;;;;3.40;1.33;;;;;;;;;;4907870;29;20034;-64
2023/07/15 13:22:54;;;;;;;2.90;1.45;;;;;;;;;;4910508;29;20040;-63
2023/07/15 13:25:20;;;;;;;6.90;1.60;;;;;;;;;;4910962;29;20040;-64
2023/07/15 13:27:46;;;;;;;4.68;1.80;;;;;;;;;;4909555;29;20044;-64
2023/07/15 13:30:12;;;;;;;5.78;1.80;;;;;;;;;;4910603;29;20130;-64
2023/07/15 13:32:38;;;;;;;2.88;1.92;;;;;;;;;;4910602;29;20035;-64
2023/07/15 13:35:05;;;;;;;3.92;1.63;;;;;;;;;;4909482;29;20103;-64
2023/07/15 13:37:31;;;;;;;4.57;1.90;;;;;;;;;;4910492;29;20708;-64
2023/07/15 13:39:57;;;;;;;6.18;2.00;;;;;;;;;;4910252;29;20032;-64
2023/07/15 13:42:23;;;;;;;4.30;1.88;;;;;;;;;;4893294;29;20065;-64
2023/07/15 13:44:50;;;;;;;4.40;1.67;;;;;;;;;;4910920;29;20758;-64
2023/07/15 13:47:16;;;;;;;5.05;1.83;;;;;;;;;;4909838;29;21883;-64
2023/07/15 13:49:42;;;;;;;5.82;1.70;;;;;;;;;;4909212;29;20035;-64
2023/07/15 13:52:09;;;;;;;5.95;1.50;;;;;;;;;;4910372;29;20026;-64
2023/07/15 13:54:35;;;;;;;4.05;1.77;;;;;;;;;;4891034;29;20114;-64
2023/07/15 13:57:01;;;;;;;4.20;1.80;;;;;;;;;;4909814;29;20036;-64
2023/07/15 13:59:27;;;;;;;3.28;1.52;;;;;;;;;;4909245;29;20040;-64
2023/07/15 14:01:53;;;;;;;6.22;1.95;;;;;;;;;;4909512;29;20032;-64
2023/07/15 14:04:19;;;;;;;3.60;1.52;;;;;;;;;;4910378;29;20484;-64
2023/07/15 14:06:46;;;;;;;4.07;1.80;;;;;;;;;;4908588;29;20043;-64
2023/07/15 14:09:12;;;;;;;5.13;1.58;;;;;;;;;;4908632;29;20108;-64
2023/07/15 14:11:39;;;;;;;4.05;1.73;;;;;;;;;;4908740;29;20047;-64
2023/07/15 14:14:05;;;;;;;4.78;1.50;;;;;;;;;;4909477;29;20057;-64
2023/07/15 14:16:31;;;;;;;6.95;1.90;;;;;;;;;;4906519;29;20031;-64
2023/07/15 14:18:57;;;;;;;4.65;1.50;;;;;;;;;;4909201;29;20043;-64
2023/07/15 14:21:23;;;;;;;4.38;1.50;;;;;;;;;;4908519;29;20035;-63
2023/07/15 14:23:50;;;;;;;4.32;1.80;;;;;;;;;;4909836;29;20427;-63
2023/07/15 14:26:18;;;;;;;5.80;2.00;;;;;;;;;;4908402;29;21955;-63
2023/07/15 14:28:44;;;;;;;3.47;1.40;;;;;;;;;;4907856;29;20744;-63
2023/07/15 14:31:10;;;;;;;7.40;1.83;;;;;;;;;;4906441;29;20080;-64
2023/07/15 14:33:36;;;;;;;3.50;1.58;;;;;;;;;;4908887;29;20048;-64
2023/07/15 14:36:02;;;;;;;4.70;1.70;;;;;;;;;;4909288;29;20027;-64
2023/07/15 14:38:28;;;;;;;3.47;1.50;;;;;;;;;;4909913;29;20095;-63
2023/07/15 14:40:54;;;;;;;3.45;1.55;;;;;;;;;;4909090;29;20091;-63